Station History

Weather Underground - logo

Station Historical Data
Daily Summary for February 27, 2018 Units:  English    Metric   Both
« Previous Day
Next Day »
Daily Weekly Monthly Yearly Custom
  High: Low: Average:
Temperature: 50.6 °F 35.6 °F 43.2 °F
Dew Point: 42.3 °F 33.9 °F 39.5 °F
Humidity: 94 % 70 % 87 %
Wind Speed: 6.9 mph 0.0 mph 0.6 mph
Wind Gust: 6.9 mph - -
Wind:- - SW
Pressure: 30.17 in 29.91 in -
Precipitation: 0.47 in    
Historical Graphs
 
 
Tabular Data for February 27, 2018
Time Temperature Dew Point Pressure Wind Wind Speed Wind Gust Humidity Rainfall Rate (Hourly)
00:04 43.5 °F 41.9 °F 29.91 in ESE 1.2 mph   94 % 0.05 in
00:09 43.4 °F 41.8 °F 29.92 in Calm     94 % 0.04 in
00:14 43.4 °F 41.8 °F 29.92 in ESE 1.0 mph 1.0 mph 94 % 0.05 in
00:19 43.3 °F 41.7 °F 29.92 in Calm     94 % 0.05 in
00:24 43.2 °F 41.6 °F 29.92 in ESE 2.0 mph 2.0 mph 94 % 0.04 in
00:29 43.1 °F 41.5 °F 29.92 in ESE 1.2 mph 1.2 mph 94 % 0.05 in
00:34 43.0 °F 41.4 °F 29.92 in ESE 1.2 mph 1.2 mph 94 % 0.05 in
00:39 42.9 °F 41.3 °F 29.92 in ESE 2.3 mph 2.3 mph 94 % 0.05 in
00:44 42.7 °F 41.1 °F 29.92 in ESE 1.0 mph 1.0 mph 94 % 0.05 in
00:49 42.6 °F 41.0 °F 29.92 in ESE 1.2 mph 1.2 mph 94 % 0.06 in
00:54 42.6 °F 41.0 °F 29.92 in ESE 3.5 mph 3.5 mph 94 % 0.05 in
00:59 42.5 °F 40.9 °F 29.92 in ESE 2.3 mph 2.3 mph 94 % 0.05 in
01:04 42.4 °F 40.8 °F 29.92 in ESE 1.2 mph 1.2 mph 94 % 0.06 in
01:09 42.4 °F 40.8 °F 29.92 in ESE 1.2 mph   94 % 0.06 in
01:14 42.3 °F 40.7 °F 29.92 in Calm   0.2 mph 94 % 0.05 in
01:19 42.2 °F 40.6 °F 29.92 in Calm   0.4 mph 94 % 0.05 in
01:24 42.1 °F 40.5 °F 29.92 in ESE 1.2 mph 1.2 mph 94 % 0.05 in
01:29 42.0 °F 40.4 °F 29.92 in ESE 1.2 mph 1.2 mph 94 % 0.04 in
01:34 42.0 °F 40.4 °F 29.92 in ESE 1.2 mph   94 % 0.05 in
01:39 42.0 °F 40.4 °F 29.92 in ESE 1.2 mph 1.2 mph 94 % 0.05 in
01:45 41.9 °F 40.3 °F 29.92 in ESE 1.2 mph 1.2 mph 94 % 0.05 in
01:50 41.9 °F 40.3 °F 29.92 in ESE 1.2 mph 1.2 mph 94 % 0.05 in
01:55 41.8 °F 40.2 °F 29.92 in ESE 1.2 mph   94 % 0.06 in
02:00 41.9 °F 40.3 °F 29.92 in ESE 1.2 mph 1.2 mph 94 % 0.06 in
02:05 41.8 °F 40.2 °F 29.92 in Calm     94 % 0.06 in
02:10 41.7 °F 40.1 °F 29.92 in ESE 1.2 mph   94 % 0.06 in
02:15 41.7 °F 40.1 °F 29.92 in Calm     94 % 0.07 in
02:20 41.7 °F 40.1 °F 29.92 in ESE 1.2 mph   94 % 0.06 in
02:25 41.6 °F 40.0 °F 29.92 in ESE 3.5 mph 3.5 mph 94 % 0.07 in
02:30 41.6 °F 40.0 °F 29.92 in ESE 1.2 mph 1.2 mph 94 % 0.07 in
02:35 41.5 °F 39.9 °F 29.92 in ESE 1.2 mph 1.2 mph 94 % 0.07 in
02:40 41.4 °F 39.8 °F 29.92 in ESE 1.2 mph 1.2 mph 94 % 0.06 in
02:45 41.3 °F 39.7 °F 29.92 in Calm     94 % 0.07 in
02:50 41.3 °F 39.7 °F 29.91 in Calm     94 % 0.07 in
02:55 41.2 °F 39.6 °F 29.91 in ESE 1.2 mph   94 % 0.06 in
03:00 41.1 °F 39.5 °F 29.91 in ESE 1.2 mph   94 % 0.07 in
03:05 41.1 °F 39.5 °F 29.91 in Calm     94 % 0.07 in
03:10 41.1 °F 39.5 °F 29.91 in Calm     94 % 0.08 in
03:15 41.0 °F 39.4 °F 29.91 in Calm     94 % 0.08 in
03:20 40.9 °F 39.3 °F 29.91 in Calm     94 % 0.08 in
03:25 40.9 °F 39.3 °F 29.91 in Calm     94 % 0.08 in
03:30 40.9 °F 39.3 °F 29.91 in ESE 1.2 mph   94 % 0.07 in
03:35 40.9 °F 39.3 °F 29.91 in ESE 1.2 mph 1.2 mph 94 % 0.07 in
03:40 40.8 °F 39.2 °F 29.91 in Calm     94 % 0.08 in
03:45 40.8 °F 39.2 °F 29.91 in Calm     94 % 0.07 in
03:50 40.8 °F 39.2 °F 29.91 in Calm     94 % 0.06 in
03:55 40.8 °F 39.2 °F 29.91 in Calm     94 % 0.06 in
04:01 40.9 °F 39.3 °F 29.91 in Calm     94 % 0.05 in
04:06 40.9 °F 39.3 °F 29.91 in Calm     94 % 0.04 in
04:11 40.8 °F 39.2 °F 29.91 in Calm     94 % 0.04 in
04:16 40.7 °F 39.1 °F 29.92 in Calm     94 % 0.03 in
04:21 40.7 °F 39.1 °F 29.92 in Calm     94 % 0.03 in
04:26 40.8 °F 39.2 °F 29.92 in Calm     94 % 0.03 in
04:31 40.8 °F 39.2 °F 29.91 in Calm     94 % 0.03 in
04:36 40.9 °F 39.3 °F 29.91 in Calm     94 % 0.04 in
04:41 40.7 °F 39.1 °F 29.92 in Calm     94 % 0.03 in
04:46 40.8 °F 39.2 °F 29.92 in Calm     94 % 0.04 in
04:51 40.9 °F 39.3 °F 29.92 in Calm     94 % 0.04 in
04:56 40.9 °F 39.3 °F 29.92 in Calm     94 % 0.05 in
05:01 40.9 °F 39.3 °F 29.92 in Calm     94 % 0.05 in
05:06 40.9 °F 39.3 °F 29.93 in Calm     94 % 0.06 in
05:11 40.9 °F 39.3 °F 29.93 in Calm     94 % 0.06 in
05:16 40.9 °F 39.3 °F 29.93 in Calm     94 % 0.06 in
05:21 40.9 °F 39.3 °F 29.92 in ESE 1.2 mph   94 % 0.07 in
05:26 40.8 °F 39.2 °F 29.92 in ESE 1.2 mph 1.2 mph 94 % 0.07 in
05:31 40.8 °F 39.2 °F 29.93 in Calm     94 % 0.07 in
05:36 40.8 °F 39.2 °F 29.93 in Calm     94 % 0.07 in
05:41 40.8 °F 39.2 °F 29.93 in Calm     94 % 0.07 in
05:46 40.7 °F 39.1 °F 29.93 in Calm     94 % 0.07 in
05:51 40.7 °F 39.1 °F 29.94 in Calm     94 % 0.08 in
05:56 40.6 °F 39.0 °F 29.93 in Calm     94 % 0.08 in
06:01 40.5 °F 38.9 °F 29.93 in Calm     94 % 0.08 in
06:06 40.5 °F 38.9 °F 29.94 in Calm     94 % 0.08 in
06:11 40.4 °F 38.5 °F 29.94 in Calm     93 % 0.07 in
06:16 40.4 °F 38.8 °F 29.94 in Calm     94 % 0.08 in
06:21 40.3 °F 38.4 °F 29.94 in ESE 1.2 mph   93 % 0.07 in
06:26 40.3 °F 38.4 °F 29.94 in ESE 1.2 mph   93 % 0.07 in
06:31 40.2 °F 38.3 °F 29.94 in Calm     93 % 0.07 in
06:36 40.2 °F 38.3 °F 29.94 in Calm     93 % 0.07 in
06:41 40.2 °F 38.3 °F 29.94 in Calm     93 % 0.08 in
06:46 40.2 °F 38.6 °F 29.94 in Calm     94 % 0.08 in
06:51 40.1 °F 38.5 °F 29.95 in Calm     94 % 0.07 in
06:56 40.1 °F 38.5 °F 29.95 in Calm     94 % 0.06 in
07:01 40.1 °F 38.5 °F 29.96 in Calm     94 % 0.07 in
07:06 40.1 °F 38.5 °F 29.96 in Calm     94 % 0.06 in
07:11 40.1 °F 38.5 °F 29.97 in Calm     94 % 0.07 in
07:16 40.0 °F 38.4 °F 29.97 in ESE 1.0 mph   94 % 0.06 in
07:21 40.1 °F 38.5 °F 29.97 in Calm     94 % 0.06 in
07:26 40.1 °F 38.5 °F 29.97 in Calm     94 % 0.05 in
07:31 40.2 °F 38.6 °F 29.97 in Calm     94 % 0.05 in
07:36 40.2 °F 38.6 °F 29.97 in Calm     94 % 0.04 in
07:41 40.3 °F 38.7 °F 29.98 in Calm     94 % 0.03 in
07:46 40.4 °F 38.8 °F 29.98 in Calm     94 % 0.02 in
07:51 40.4 °F 38.8 °F 29.98 in Calm     94 % 0.02 in
07:56 40.5 °F 38.9 °F 29.98 in Calm     94 % 0.02 in
08:01 40.6 °F 39.0 °F 29.98 in Calm     94 % 0.01 in
08:02 40.6 °F 39.0 °F 29.98 in Calm     94 % 0.01 in
08:07 40.6 °F 39.0 °F 29.99 in Calm     94 % 0.02 in
08:12 40.7 °F 39.1 °F 29.99 in Calm     94 % 0.01 in
08:17 40.7 °F 39.1 °F 29.99 in Calm     94 % 0.01 in
08:22 40.8 °F 39.2 °F 29.99 in Calm     94 % 0.01 in
08:27 40.9 °F 39.3 °F 30.00 in Calm     94 % 0.01 in
08:32 41.0 °F 39.4 °F 30.00 in Calm     94 % 0.02 in
08:37 41.0 °F 39.4 °F 30.00 in Calm     94 % 0.02 in
08:38 41.1 °F 39.5 °F 30.00 in Calm     94 % 0.02 in
08:43 41.1 °F 39.2 °F 30.00 in Calm     93 % 0.02 in
08:48 41.1 °F 39.2 °F 30.00 in Calm     93 % 0.02 in
08:53 41.2 °F 39.3 °F 30.01 in Calm     93 % 0.02 in
08:58 41.3 °F 39.4 °F 30.01 in Calm     93 % 0.02 in
09:03 41.3 °F 39.4 °F 30.02 in Calm     93 % 0.02 in
09:08 41.4 °F 39.5 °F 30.02 in Calm     93 % 0.01 in
09:13 41.4 °F 39.5 °F 30.02 in Calm     93 % 0.01 in
09:18 41.5 °F 39.6 °F 30.02 in Calm     93 % 0.01 in
09:23 41.8 °F 39.9 °F 30.03 in Calm     93 % 0.01 in
09:28 41.9 °F 39.7 °F 30.03 in Calm     92 % 0.01 in
09:33 42.0 °F 39.8 °F 30.03 in Calm     92 % 0.00 in
09:38 42.5 °F 40.3 °F 30.04 in Calm     92 % 0.00 in
09:43 43.0 °F 40.8 °F 30.04 in Calm     92 % 0.00 in
09:48 43.4 °F 41.2 °F 30.04 in Calm     92 % 0.00 in
09:53 43.6 °F 41.1 °F 30.05 in ESE 1.2 mph   91 % 0.00 in
09:58 44.2 °F 41.7 °F 30.05 in Calm     91 % 0.00 in
10:03 44.0 °F 41.0 °F 30.05 in ESE 1.2 mph 1.2 mph 89 % 0.00 in
10:08 44.1 °F 41.4 °F 30.05 in ESE 1.2 mph 1.2 mph 90 % 0.01 in
10:13 44.3 °F 41.0 °F 30.05 in NNW 1.2 mph 1.2 mph 88 % 0.01 in
10:18 44.5 °F 41.2 °F 30.06 in WNW 2.3 mph 2.3 mph 88 % 0.01 in
10:23 44.6 °F 41.0 °F 30.06 in WNW 3.5 mph 3.5 mph 87 % 0.01 in
10:33 44.9 °F 41.3 °F 30.06 in Calm     87 % 0.01 in
10:38 45.1 °F 41.5 °F 30.06 in West 1.2 mph 1.2 mph 87 % 0.01 in
10:43 45.4 °F 41.8 °F 30.07 in Calm     87 % 0.01 in
10:48 45.5 °F 41.3 °F 30.07 in West 1.2 mph 1.2 mph 85 % 0.01 in
10:53 45.3 °F 40.7 °F 30.07 in NNW 1.2 mph 1.2 mph 84 % 0.01 in
10:58 45.4 °F 41.5 °F 30.08 in Calm     86 % 0.01 in
11:03 45.6 °F 41.7 °F 30.08 in Calm     86 % 0.01 in
11:08 45.7 °F 41.4 °F 30.08 in SSE 1.0 mph 1.0 mph 85 % 0.00 in
11:13 45.7 °F 41.4 °F 30.08 in Calm     85 % 0.00 in
11:18 45.6 °F 41.0 °F 30.08 in Calm   0.1 mph 84 % 0.00 in
11:23 45.7 °F 41.1 °F 30.08 in SSE 1.2 mph   84 % 0.00 in
11:28 45.6 °F 40.4 °F 30.08 in West 2.3 mph 2.3 mph 82 % 0.00 in
11:33 45.5 °F 40.9 °F 30.07 in NW 1.2 mph 1.2 mph 84 % 0.00 in
11:38 45.6 °F 40.7 °F 30.07 in Calm     83 % 0.00 in
11:43 45.8 °F 40.9 °F 30.07 in NW 2.3 mph 2.3 mph 83 % 0.00 in
11:48 45.6 °F 40.1 °F 30.07 in Calm     81 % 0.00 in
11:53 45.6 °F 40.4 °F 30.07 in Calm     82 % 0.00 in
11:58 45.8 °F 40.9 °F 30.07 in WNW 1.2 mph 1.2 mph 83 % 0.00 in
12:03 46.1 °F 41.2 °F 30.07 in NW 2.3 mph 2.3 mph 83 % 0.00 in
12:08 46.3 °F 41.4 °F 30.07 in Calm     83 % 0.00 in
12:13 46.8 °F 41.6 °F 30.07 in NW 1.2 mph   82 % 0.00 in
12:18 46.7 °F 41.2 °F 30.07 in WNW 1.2 mph 1.2 mph 81 % 0.00 in
12:23 46.6 °F 41.1 °F 30.07 in NW 1.0 mph 1.0 mph 81 % 0.00 in
12:28 46.6 °F 41.1 °F 30.07 in Calm     81 % 0.00 in
12:33 46.5 °F 40.3 °F 30.07 in Calm   0.1 mph 79 % 0.00 in
12:38 46.5 °F 40.3 °F 30.07 in NNW 1.2 mph   79 % 0.00 in
12:43 46.9 °F 41.1 °F 30.07 in NW 2.3 mph 2.3 mph 80 % 0.00 in
12:48 47.3 °F 40.5 °F 30.07 in WNW 1.2 mph   77 % 0.00 in
12:53 47.5 °F 41.3 °F 30.07 in NNW 2.3 mph 2.3 mph 79 % 0.00 in
12:58 47.7 °F 41.2 °F 30.07 in Calm     78 % 0.00 in
13:03 47.9 °F 41.7 °F 30.07 in Calm     79 % 0.00 in
13:09 48.0 °F 41.1 °F 30.07 in Calm     77 % 0.00 in
13:14 47.9 °F 41.0 °F 30.07 in WNW 1.2 mph 1.2 mph 77 % 0.00 in
13:19 47.9 °F 41.0 °F 30.07 in NW 1.2 mph   77 % 0.00 in
13:24 48.0 °F 40.8 °F 30.07 in NW 3.5 mph 3.5 mph 76 % 0.00 in
13:29 48.1 °F 40.9 °F 30.07 in West 1.0 mph 1.0 mph 76 % 0.00 in
13:34 48.5 °F 41.3 °F 30.07 in NNW 1.2 mph 1.2 mph 76 % 0.00 in
13:39 49.0 °F 41.4 °F 30.07 in WNW 1.2 mph 1.2 mph 75 % 0.00 in
13:44 49.1 °F 41.2 °F 30.07 in North 2.3 mph 2.3 mph 74 % 0.00 in
13:49 49.1 °F 40.8 °F 30.07 in Calm     73 % 0.00 in
13:54 49.0 °F 40.4 °F 30.07 in Calm     72 % 0.00 in
13:59 48.9 °F 40.6 °F 30.07 in Calm     73 % 0.00 in
14:04 48.9 °F 41.0 °F 30.07 in NW 2.3 mph 2.3 mph 74 % 0.00 in
14:09 48.9 °F 41.0 °F 30.07 in WNW 1.2 mph 1.2 mph 74 % 0.00 in
14:14 48.9 °F 41.0 °F 30.07 in NW 2.3 mph 2.3 mph 74 % 0.00 in
14:19 48.8 °F 40.9 °F 30.07 in Calm     74 % 0.00 in
14:24 48.8 °F 40.9 °F 30.07 in WNW 1.2 mph 1.2 mph 74 % 0.00 in
14:29 48.9 °F 41.0 °F 30.07 in North 2.3 mph 2.3 mph 74 % 0.00 in
14:34 49.0 °F 41.4 °F 30.07 in NW 1.2 mph 1.2 mph 75 % 0.00 in
14:39 49.0 °F 40.7 °F 30.07 in NW 3.5 mph 3.5 mph 73 % 0.00 in
14:44 49.0 °F 41.1 °F 30.07 in Calm     74 % 0.00 in
14:49 49.1 °F 40.8 °F 30.07 in WNW 1.2 mph   73 % 0.00 in
14:54 49.6 °F 41.7 °F 30.07 in SW 1.2 mph 1.2 mph 74 % 0.00 in
14:59 50.3 °F 41.6 °F 30.07 in NW 3.5 mph 3.5 mph 72 % 0.00 in
15:04 50.4 °F 41.3 °F 30.07 in NW 4.0 mph 4.0 mph 71 % 0.00 in
15:09 50.6 °F 42.3 °F 30.07 in NW 6.9 mph 6.9 mph 73 % 0.00 in
15:14 50.1 °F 41.4 °F 30.07 in NW 3.5 mph 3.5 mph 72 % 0.00 in
15:19 49.8 °F 41.5 °F 30.08 in West 2.3 mph 2.3 mph 73 % 0.00 in
15:24 49.7 °F 41.4 °F 30.08 in WNW 3.5 mph 3.5 mph 73 % 0.00 in
15:29 49.7 °F 41.4 °F 30.08 in Calm     73 % 0.00 in
15:34 49.8 °F 41.5 °F 30.08 in NW 2.3 mph   73 % 0.00 in
15:39 49.9 °F 41.2 °F 30.08 in NNW 1.2 mph   72 % 0.00 in
15:44 49.6 °F 40.9 °F 30.08 in NW 2.3 mph 2.3 mph 72 % 0.00 in
15:49 49.6 °F 40.9 °F 30.08 in Calm     72 % 0.00 in
15:54 49.7 °F 40.3 °F 30.08 in NW 1.2 mph 1.2 mph 70 % 0.00 in
15:59 49.5 °F 40.5 °F 30.08 in West 1.2 mph 1.2 mph 71 % 0.00 in
16:04 49.6 °F 40.6 °F 30.08 in NW 2.0 mph 2.0 mph 71 % 0.00 in
16:09 49.6 °F 40.6 °F 30.08 in Calm     71 % 0.00 in
16:14 49.6 °F 40.9 °F 30.09 in NW 2.3 mph 2.3 mph 72 % 0.00 in
16:19 49.7 °F 40.7 °F 30.09 in WNW 2.3 mph 2.3 mph 71 % 0.00 in
16:24 49.7 °F 40.3 °F 30.09 in NNW 2.3 mph   70 % 0.00 in
16:29 49.8 °F 41.1 °F 30.09 in NW 2.3 mph 2.3 mph 72 % 0.00 in
16:34 49.6 °F 40.2 °F 30.09 in NW 1.2 mph   70 % 0.00 in
16:39 49.3 °F 40.3 °F 30.09 in Calm     71 % 0.00 in
16:44 49.2 °F 40.6 °F 30.09 in Calm     72 % 0.00 in
16:49 49.2 °F 40.2 °F 30.09 in Calm     71 % 0.00 in
16:54 48.9 °F 40.3 °F 30.10 in West 1.2 mph   72 % 0.00 in
16:59 48.8 °F 40.2 °F 30.10 in NW 2.3 mph   72 % 0.00 in
17:04 48.6 °F 40.3 °F 30.10 in Calm     73 % 0.00 in
17:09 48.5 °F 40.2 °F 30.10 in NW 1.2 mph 1.2 mph 73 % 0.00 in
17:14 48.3 °F 40.0 °F 30.10 in Calm     73 % 0.00 in
17:19 48.3 °F 40.0 °F 30.10 in Calm     73 % 0.00 in
17:25 48.2 °F 40.3 °F 30.11 in Calm     74 % 0.00 in
17:30 48.1 °F 40.2 °F 30.11 in Calm     74 % 0.00 in
17:35 48.1 °F 40.2 °F 30.11 in Calm     74 % 0.00 in
17:40 48.1 °F 40.2 °F 30.11 in Calm     74 % 0.00 in
17:45 48.0 °F 40.1 °F 30.11 in Calm     74 % 0.00 in
17:50 47.7 °F 39.5 °F 30.11 in Calm     73 % 0.00 in
17:55 47.6 °F 39.4 °F 30.11 in Calm     73 % 0.00 in
18:00 47.2 °F 39.3 °F 30.11 in Calm     74 % 0.00 in
18:05 46.9 °F 40.1 °F 30.11 in Calm     77 % 0.00 in
18:10 46.5 °F 40.0 °F 30.11 in Calm     78 % 0.00 in
18:15 46.1 °F 39.9 °F 30.11 in Calm     79 % 0.00 in
18:20 45.7 °F 39.9 °F 30.11 in Calm     80 % 0.00 in
18:25 45.4 °F 39.6 °F 30.11 in Calm     80 % 0.00 in
18:30 45.1 °F 39.9 °F 30.11 in Calm     82 % 0.00 in
18:35 44.9 °F 39.7 °F 30.11 in Calm     82 % 0.00 in
18:40 44.8 °F 40.3 °F 30.12 in Calm     84 % 0.00 in
18:45 44.7 °F 40.5 °F 30.12 in Calm     85 % 0.00 in
18:50 44.6 °F 40.7 °F 30.12 in Calm     86 % 0.00 in
18:55 44.5 °F 40.9 °F 30.12 in Calm     87 % 0.00 in
19:00 44.4 °F 40.8 °F 30.12 in Calm     87 % 0.00 in
19:05 44.4 °F 41.1 °F 30.12 in Calm     88 % 0.00 in
19:10 44.2 °F 40.9 °F 30.12 in Calm     88 % 0.00 in
19:15 43.8 °F 40.5 °F 30.12 in Calm     88 % 0.00 in
19:20 43.4 °F 40.1 °F 30.12 in Calm     88 % 0.00 in
19:25 43.0 °F 39.7 °F 30.12 in Calm     88 % 0.00 in
19:30 42.7 °F 39.7 °F 30.12 in Calm     89 % 0.00 in
19:35 42.8 °F 39.8 °F 30.12 in Calm     89 % 0.00 in
19:40 43.1 °F 39.8 °F 30.12 in Calm     88 % 0.00 in
19:45 43.2 °F 39.6 °F 30.12 in Calm     87 % 0.00 in
19:50 42.9 °F 39.0 °F 30.13 in Calm     86 % 0.00 in
19:55 42.4 °F 38.5 °F 30.13 in Calm     86 % 0.00 in
20:00 42.1 °F 38.5 °F 30.13 in Calm     87 % 0.00 in
20:05 42.0 °F 38.7 °F 30.13 in Calm     88 % 0.00 in
20:10 41.7 °F 38.1 °F 30.13 in Calm     87 % 0.00 in
20:15 41.3 °F 37.7 °F 30.14 in Calm     87 % 0.00 in
20:20 41.0 °F 38.0 °F 30.14 in Calm     89 % 0.00 in
20:25 40.8 °F 37.8 °F 30.14 in Calm     89 % 0.00 in
20:30 40.7 °F 38.0 °F 30.14 in Calm     90 % 0.00 in
20:35 40.6 °F 37.9 °F 30.14 in Calm     90 % 0.00 in
20:40 40.4 °F 37.7 °F 30.15 in Calm     90 % 0.00 in
20:45 40.4 °F 38.0 °F 30.15 in Calm     91 % 0.00 in
20:50 40.3 °F 37.9 °F 30.15 in Calm     91 % 0.00 in
20:55 40.2 °F 37.8 °F 30.16 in Calm     91 % 0.00 in
21:00 40.1 °F 37.7 °F 30.16 in Calm     91 % 0.00 in
21:05 40.0 °F 37.6 °F 30.16 in Calm     91 % 0.00 in
21:10 39.8 °F 37.4 °F 30.16 in Calm     91 % 0.00 in
21:15 39.7 °F 37.3 °F 30.16 in Calm     91 % 0.00 in
21:20 39.4 °F 37.0 °F 30.16 in Calm     91 % 0.00 in
21:25 39.3 °F 37.2 °F 30.16 in Calm     92 % 0.00 in
21:30 39.2 °F 37.1 °F 30.16 in Calm     92 % 0.00 in
21:35 39.0 °F 36.9 °F 30.16 in Calm     92 % 0.00 in
21:40 38.8 °F 36.7 °F 30.16 in Calm     92 % 0.00 in
21:45 38.7 °F 36.6 °F 30.16 in Calm     92 % 0.00 in
21:50 38.7 °F 36.9 °F 30.16 in Calm     93 % 0.00 in
21:55 38.8 °F 36.9 °F 30.16 in Calm     93 % 0.00 in
22:00 38.9 °F 37.0 °F 30.16 in Calm     93 % 0.00 in
22:05 38.9 °F 37.0 °F 30.16 in Calm     93 % 0.00 in
22:10 38.5 °F 36.7 °F 30.16 in Calm     93 % 0.00 in
22:15 38.1 °F 36.0 °F 30.16 in Calm     92 % 0.00 in
22:20 37.8 °F 35.7 °F 30.17 in Calm     92 % 0.00 in
22:25 37.5 °F 35.4 °F 30.17 in Calm     92 % 0.00 in
22:30 37.6 °F 35.8 °F 30.17 in Calm     93 % 0.00 in
22:35 37.5 °F 35.7 °F 30.17 in Calm     93 % 0.00 in
22:40 37.2 °F 35.4 °F 30.17 in Calm     93 % 0.00 in
22:45 36.9 °F 35.1 °F 30.16 in Calm     93 % 0.00 in
22:50 36.8 °F 35.0 °F 30.16 in Calm     93 % 0.00 in
22:55 36.6 °F 34.8 °F 30.16 in Calm     93 % 0.00 in
23:00 36.4 °F 34.6 °F 30.16 in Calm     93 % 0.00 in
23:05 36.2 °F 34.4 °F 30.16 in Calm     93 % 0.00 in
23:10 36.1 °F 34.3 °F 30.16 in Calm     93 % 0.00 in
23:15 36.0 °F 34.2 °F 30.16 in Calm     93 % 0.00 in
23:21 35.8 °F 34.0 °F 30.16 in Calm     93 % 0.00 in
23:26 35.7 °F 33.9 °F 30.17 in Calm     93 % 0.00 in
23:31 35.8 °F 34.2 °F 30.17 in Calm     94 % 0.00 in
23:36 35.7 °F 34.1 °F 30.17 in Calm     94 % 0.00 in
23:41 35.6 °F 34.0 °F 30.17 in Calm     94 % 0.00 in
23:46 35.8 °F 34.2 °F 30.17 in Calm     94 % 0.00 in
23:51 35.9 °F 34.3 °F 30.17 in Calm     94 % 0.00 in
23:56 36.0 °F 34.4 °F 30.17 in Calm     94 % 0.00 in
Park Place, Exeter, Tulare County, California, USA
Compliments of Weather Underground - 2.75 mb